sensor_id;sensor_type;location;lat;lon;timestamp;temperature;humidity
18729;DHT22;9493;51.884;5.188;2023-03-14T00:00:41;11.80;99.90
18729;DHT22;9493;51.884;5.188;2023-03-14T00:03:12;11.70;99.90
18729;DHT22;9493;51.884;5.188;2023-03-14T00:05:40;11.60;99.90
18729;DHT22;9493;51.884;5.188;2023-03-14T00:08:10;11.70;99.90
18729;DHT22;9493;51.884;5.188;2023-03-14T00:10:41;11.70;99.90
18729;DHT22;9493;51.884;5.188;2023-03-14T00:13:17;11.60;99.90
18729;DHT22;9493;51.884;5.188;2023-03-14T00:18:36;11.70;99.90
18729;DHT22;9493;51.884;5.188;2023-03-14T00:21:28;11.70;99.90
18729;DHT22;9493;51.884;5.188;2023-03-14T00:23:58;11.60;99.90
18729;DHT22;9493;51.884;5.188;2023-03-14T00:26:27;11.60;99.90
18729;DHT22;9493;51.884;5.188;2023-03-14T00:28:55;11.50;99.90
18729;DHT22;9493;51.884;5.188;2023-03-14T00:31:28;11.50;99.90
18729;DHT22;9493;51.884;5.188;2023-03-14T00:34:10;11.40;99.90
18729;DHT22;9493;51.884;5.188;2023-03-14T00:36:41;11.40;99.90
18729;DHT22;9493;51.884;5.188;2023-03-14T00:39:09;11.40;99.90
18729;DHT22;9493;51.884;5.188;2023-03-14T00:41:38;11.30;99.90
18729;DHT22;9493;51.884;5.188;2023-03-14T00:44:08;11.30;99.90
18729;DHT22;9493;51.884;5.188;2023-03-14T00:46:40;11.40;99.90
18729;DHT22;9493;51.884;5.188;2023-03-14T09:57:58;7.40;99.90
18729;DHT22;9493;51.884;5.188;2023-03-14T10:00:28;7.50;99.90
18729;DHT22;9493;51.884;5.188;2023-03-14T10:03:00;7.70;99.90
18729;DHT22;9493;51.884;5.188;2023-03-14T10:05:34;7.50;99.90
18729;DHT22;9493;51.884;5.188;2023-03-14T10:08:01;7.60;99.90
18729;DHT22;9493;51.884;5.188;2023-03-14T10:10:28;7.30;99.90
18729;DHT22;9493;51.884;5.188;2023-03-14T10:12:59;7.40;99.90
18729;DHT22;9493;51.884;5.188;2023-03-14T10:15:31;7.50;99.90
18729;DHT22;9493;51.884;5.188;2023-03-14T10:17:59;7.70;99.90
18729;DHT22;9493;51.884;5.188;2023-03-14T10:20:34;7.80;99.90
18729;DHT22;9493;51.884;5.188;2023-03-14T10:23:27;7.80;99.90
18729;DHT22;9493;51.884;5.188;2023-03-14T10:26:04;8.00;99.90
18729;DHT22;9493;51.884;5.188;2023-03-14T10:28:34;8.20;99.90
18729;DHT22;9493;51.884;5.188;2023-03-14T10:31:04;7.90;99.90
18729;DHT22;9493;51.884;5.188;2023-03-14T10:33:33;7.70;99.90
18729;DHT22;9493;51.884;5.188;2023-03-14T10:36:01;7.70;99.90
18729;DHT22;9493;51.884;5.188;2023-03-14T10:38:33;7.60;99.90
18729;DHT22;9493;51.884;5.188;2023-03-14T10:41:01;7.50;99.90
18729;DHT22;9493;51.884;5.188;2023-03-14T10:43:33;7.40;99.90
18729;DHT22;9493;51.884;5.188;2023-03-14T10:46:07;7.30;99.90
18729;DHT22;9493;51.884;5.188;2023-03-14T10:48:36;7.20;99.90
18729;DHT22;9493;51.884;5.188;2023-03-14T10:51:06;7.30;99.90
18729;DHT22;9493;51.884;5.188;2023-03-14T10:53:39;7.40;99.90
18729;DHT22;9493;51.884;5.188;2023-03-14T10:56:06;7.40;99.90
18729;DHT22;9493;51.884;5.188;2023-03-14T10:58:41;7.70;99.90
18729;DHT22;9493;51.884;5.188;2023-03-14T11:01:20;7.90;99.90
18729;DHT22;9493;51.884;5.188;2023-03-14T11:03:57;7.70;99.90
18729;DHT22;9493;51.884;5.188;2023-03-14T11:06:32;7.70;99.90
18729;DHT22;9493;51.884;5.188;2023-03-14T11:09:07;7.80;99.90
18729;DHT22;9493;51.884;5.188;2023-03-14T11:11:39;7.90;99.90
18729;DHT22;9493;51.884;5.188;2023-03-14T11:14:18;7.80;99.90
18729;DHT22;9493;51.884;5.188;2023-03-14T11:16:54;7.90;99.90
18729;DHT22;9493;51.884;5.188;2023-03-14T11:19:40;7.80;99.90
18729;DHT22;9493;51.884;5.188;2023-03-14T11:22:16;7.20;99.90
18729;DHT22;9493;51.884;5.188;2023-03-14T11:24:56;6.70;99.90
18729;DHT22;9493;51.884;5.188;2023-03-14T11:27:33;6.70;99.90
18729;DHT22;9493;51.884;5.188;2023-03-14T11:30:19;6.70;99.90
18729;DHT22;9493;51.884;5.188;2023-03-14T11:32:53;6.80;99.90
18729;DHT22;9493;51.884;5.188;2023-03-14T11:35:30;7.10;99.90
18729;DHT22;9493;51.884;5.188;2023-03-14T11:38:11;7.20;99.90
18729;DHT22;9493;51.884;5.188;2023-03-14T11:40:39;7.40;99.90
18729;DHT22;9493;51.884;5.188;2023-03-14T11:43:13;7.70;99.90
18729;DHT22;9493;51.884;5.188;2023-03-14T11:45:43;7.90;99.90
18729;DHT22;9493;51.884;5.188;2023-03-14T11:48:25;8.50;99.90
18729;DHT22;9493;51.884;5.188;2023-03-14T11:50:57;9.20;99.90
18729;DHT22;9493;51.884;5.188;2023-03-14T11:53:41;9.80;99.90
18729;DHT22;9493;51.884;5.188;2023-03-14T11:56:13;9.80;99.90
18729;DHT22;9493;51.884;5.188;2023-03-14T11:58:50;9.80;99.90
18729;DHT22;9493;51.884;5.188;2023-03-14T12:01:20;9.60;99.90
18729;DHT22;9493;51.884;5.188;2023-03-14T12:03:55;10.00;99.90
18729;DHT22;9493;51.884;5.188;2023-03-14T12:06:30;10.30;99.90
18729;DHT22;9493;51.884;5.188;2023-03-14T12:08:58;10.80;99.90
18729;DHT22;9493;51.884;5.188;2023-03-14T12:11:35;10.60;99.90
18729;DHT22;9493;51.884;5.188;2023-03-14T12:14:03;10.60;99.90
18729;DHT22;9493;51.884;5.188;2023-03-14T12:16:46;10.80;99.90
18729;DHT22;9493;51.884;5.188;2023-03-14T12:19:35;11.40;99.90
18729;DHT22;9493;51.884;5.188;2023-03-14T12:22:25;10.40;99.90
18729;DHT22;9493;51.884;5.188;2023-03-14T12:24:57;10.30;99.90
18729;DHT22;9493;51.884;5.188;2023-03-14T12:27:45;10.80;99.90
18729;DHT22;9493;51.884;5.188;2023-03-14T12:30:25;10.90;99.90
18729;DHT22;9493;51.884;5.188;2023-03-14T12:33:27;10.90;99.90
18729;DHT22;9493;51.884;5.188;2023-03-14T12:36:04;11.00;99.20
18729;DHT22;9493;51.884;5.188;2023-03-14T12:39:00;11.10;98.60
18729;DHT22;9493;51.884;5.188;2023-03-14T12:41:36;11.20;98.30
18729;DHT22;9493;51.884;5.188;2023-03-14T12:44:42;11.30;98.10
18729;DHT22;9493;51.884;5.188;2023-03-14T12:50:12;11.60;97.60
18729;DHT22;9493;51.884;5.188;2023-03-14T12:55:33;11.50;96.50
18729;DHT22;9493;51.884;5.188;2023-03-14T12:58:07;11.90;96.00
18729;DHT22;9493;51.884;5.188;2023-03-14T13:00:38;11.50;95.90
18729;DHT22;9493;51.884;5.188;2023-03-14T13:03:18;11.60;95.60
18729;DHT22;9493;51.884;5.188;2023-03-14T13:05:56;11.50;95.20
18729;DHT22;9493;51.884;5.188;2023-03-14T13:08:36;11.40;95.20
18729;DHT22;9493;51.884;5.188;2023-03-14T13:11:07;11.70;94.90
18729;DHT22;9493;51.884;5.188;2023-03-14T13:13:35;11.80;94.60
18729;DHT22;9493;51.884;5.188;2023-03-14T13:16:03;12.30;94.30
18729;DHT22;9493;51.884;5.188;2023-03-14T13:18:35;11.30;94.00
18729;DHT22;9493;51.884;5.188;2023-03-14T13:21:07;11.10;93.90
18729;DHT22;9493;51.884;5.188;2023-03-14T13:23:38;10.90;93.60
18729;DHT22;9493;51.884;5.188;2023-03-14T13:26:11;11.20;93.50
18729;DHT22;9493;51.884;5.188;2023-03-14T13:28:39;11.30;93.50
18729;DHT22;9493;51.884;5.188;2023-03-14T13:31:23;11.60;93.50
18729;DHT22;9493;51.884;5.188;2023-03-14T13:34:00;11.20;93.20
18729;DHT22;9493;51.884;5.188;2023-03-14T13:36:28;10.80;93.10
18729;DHT22;9493;51.884;5.188;2023-03-14T13:38:56;10.40;93.10
18729;DHT22;9493;51.884;5.188;2023-03-14T13:41:24;10.60;93.00
18729;DHT22;9493;51.884;5.188;2023-03-14T13:43:51;10.90;93.00
18729;DHT22;9493;51.884;5.188;2023-03-14T13:46:22;10.90;92.90
18729;DHT22;9493;51.884;5.188;2023-03-14T13:48:53;11.40;93.30
18729;DHT22;9493;51.884;5.188;2023-03-14T13:51:22;11.00;93.40
18729;DHT22;9493;51.884;5.188;2023-03-14T13:53:53;10.40;93.20
18729;DHT22;9493;51.884;5.188;2023-03-14T13:56:20;9.90;93.10
18729;DHT22;9493;51.884;5.188;2023-03-14T13:58:48;9.60;92.80
18729;DHT22;9493;51.884;5.188;2023-03-14T14:01:17;9.30;92.70
18729;DHT22;9493;51.884;5.188;2023-03-14T14:03:46;9.00;92.40
18729;DHT22;9493;51.884;5.188;2023-03-14T14:06:26;9.00;92.20
18729;DHT22;9493;51.884;5.188;2023-03-14T14:08:55;9.40;92.30
18729;DHT22;9493;51.884;5.188;2023-03-14T14:11:37;9.40;92.40
18729;DHT22;9493;51.884;5.188;2023-03-14T14:14:06;9.40;92.50
18729;DHT22;9493;51.884;5.188;2023-03-14T14:16:35;9.30;92.50
18729;DHT22;9493;51.884;5.188;2023-03-14T14:19:02;9.20;92.70
18729;DHT22;9493;51.884;5.188;2023-03-14T14:21:29;9.20;92.90
18729;DHT22;9493;51.884;5.188;2023-03-14T14:23:58;9.30;92.90
18729;DHT22;9493;51.884;5.188;2023-03-14T14:26:26;9.00;93.00
18729;DHT22;9493;51.884;5.188;2023-03-14T14:29:02;9.00;93.10
18729;DHT22;9493;51.884;5.188;2023-03-14T14:31:29;9.00;93.00
18729;DHT22;9493;51.884;5.188;2023-03-14T14:33:57;9.30;92.90
18729;DHT22;9493;51.884;5.188;2023-03-14T14:36:28;9.00;92.70
18729;DHT22;9493;51.884;5.188;2023-03-14T14:39:03;8.80;92.40
18729;DHT22;9493;51.884;5.188;2023-03-14T14:41:33;8.70;92.30
18729;DHT22;9493;51.884;5.188;2023-03-14T14:44:02;8.40;92.10
18729;DHT22;9493;51.884;5.188;2023-03-14T14:46:32;8.50;92.10
18729;DHT22;9493;51.884;5.188;2023-03-14T14:49:03;8.30;92.10
18729;DHT22;9493;51.884;5.188;2023-03-14T14:51:33;8.20;92.00
18729;DHT22;9493;51.884;5.188;2023-03-14T14:54:11;8.20;92.20
18729;DHT22;9493;51.884;5.188;2023-03-14T14:56:39;8.40;92.30
18729;DHT22;9493;51.884;5.188;2023-03-14T14:59:22;8.20;92.50
18729;DHT22;9493;51.884;5.188;2023-03-14T15:01:49;8.20;92.60
18729;DHT22;9493;51.884;5.188;2023-03-14T15:04:17;8.10;92.80
18729;DHT22;9493;51.884;5.188;2023-03-14T15:06:46;8.10;93.20
18729;DHT22;9493;51.884;5.188;2023-03-14T15:09:16;8.20;93.40
18729;DHT22;9493;51.884;5.188;2023-03-14T15:11:43;8.10;93.80
18729;DHT22;9493;51.884;5.188;2023-03-14T15:14:10;8.00;94.10
18729;DHT22;9493;51.884;5.188;2023-03-14T15:16:38;7.90;94.40
18729;DHT22;9493;51.884;5.188;2023-03-14T15:19:15;8.10;94.70
18729;DHT22;9493;51.884;5.188;2023-03-14T15:21:43;8.00;94.80
18729;DHT22;9493;51.884;5.188;2023-03-14T15:24:10;7.80;94.60
18729;DHT22;9493;51.884;5.188;2023-03-14T15:26:38;7.90;94.40
18729;DHT22;9493;51.884;5.188;2023-03-14T15:29:05;7.80;94.10
18729;DHT22;9493;51.884;5.188;2023-03-14T15:31:34;7.60;93.80
18729;DHT22;9493;51.884;5.188;2023-03-14T15:34:01;7.60;93.40
18729;DHT22;9493;51.884;5.188;2023-03-14T15:36:30;7.50;93.20
18729;DHT22;9493;51.884;5.188;2023-03-14T15:38:58;7.50;93.30
18729;DHT22;9493;51.884;5.188;2023-03-14T15:41:26;7.40;93.30
18729;DHT22;9493;51.884;5.188;2023-03-14T15:43:54;7.30;93.30
18729;DHT22;9493;51.884;5.188;2023-03-14T15:46:22;7.20;93.30
18729;DHT22;9493;51.884;5.188;2023-03-14T15:48:50;7.20;93.30
18729;DHT22;9493;51.884;5.188;2023-03-14T15:51:18;7.30;93.50
18729;DHT22;9493;51.884;5.188;2023-03-14T15:53:45;7.30;93.60
18729;DHT22;9493;51.884;5.188;2023-03-14T15:56:14;7.40;93.50
18729;DHT22;9493;51.884;5.188;2023-03-14T15:58:41;7.20;93.80
18729;DHT22;9493;51.884;5.188;2023-03-14T16:01:15;7.20;93.90
18729;DHT22;9493;51.884;5.188;2023-03-14T16:03:42;7.40;94.10
18729;DHT22;9493;51.884;5.188;2023-03-14T16:06:10;7.20;94.10
18729;DHT22;9493;51.884;5.188;2023-03-14T16:08:37;7.10;94.20
18729;DHT22;9493;51.884;5.188;2023-03-14T16:11:05;7.10;94.40
18729;DHT22;9493;51.884;5.188;2023-03-14T16:13:32;7.10;94.40
18729;DHT22;9493;51.884;5.188;2023-03-14T16:16:00;7.00;94.50
18729;DHT22;9493;51.884;5.188;2023-03-14T16:18:31;7.00;94.50
18729;DHT22;9493;51.884;5.188;2023-03-14T16:20:59;7.00;94.50
18729;DHT22;9493;51.884;5.188;2023-03-14T16:23:27;7.00;94.60
18729;DHT22;9493;51.884;5.188;2023-03-14T16:25:55;7.00;94.70
18729;DHT22;9493;51.884;5.188;2023-03-14T16:28:23;7.00;94.90
18729;DHT22;9493;51.884;5.188;2023-03-14T16:30:50;6.90;95.00
18729;DHT22;9493;51.884;5.188;2023-03-14T16:33:17;6.90;95.20
18729;DHT22;9493;51.884;5.188;2023-03-14T16:35:54;6.80;95.40
18729;DHT22;9493;51.884;5.188;2023-03-14T16:38:22;6.90;95.60
18729;DHT22;9493;51.884;5.188;2023-03-14T16:40:56;6.90;95.80
18729;DHT22;9493;51.884;5.188;2023-03-14T16:43:23;6.90;95.90
18729;DHT22;9493;51.884;5.188;2023-03-14T16:45:50;6.80;95.90
18729;DHT22;9493;51.884;5.188;2023-03-14T16:48:17;6.80;95.80
18729;DHT22;9493;51.884;5.188;2023-03-14T16:50:44;6.80;95.80
18729;DHT22;9493;51.884;5.188;2023-03-14T16:53:13;6.70;95.60
18729;DHT22;9493;51.884;5.188;2023-03-14T16:55:40;6.70;95.40
18729;DHT22;9493;51.884;5.188;2023-03-14T16:58:08;6.80;95.30
18729;DHT22;9493;51.884;5.188;2023-03-14T17:00:35;6.70;95.30
18729;DHT22;9493;51.884;5.188;2023-03-14T17:03:03;6.70;95.40
18729;DHT22;9493;51.884;5.188;2023-03-14T17:05:30;6.60;95.40
18729;DHT22;9493;51.884;5.188;2023-03-14T17:07:57;6.60;95.50
18729;DHT22;9493;51.884;5.188;2023-03-14T17:10:25;6.70;95.70
18729;DHT22;9493;51.884;5.188;2023-03-14T17:12:52;6.80;95.90
18729;DHT22;9493;51.884;5.188;2023-03-14T17:15:19;6.90;95.90
18729;DHT22;9493;51.884;5.188;2023-03-14T17:17:45;6.90;96.00
18729;DHT22;9493;51.884;5.188;2023-03-14T17:20:12;6.80;95.90
18729;DHT22;9493;51.884;5.188;2023-03-14T17:22:40;6.70;95.90
18729;DHT22;9493;51.884;5.188;2023-03-14T17:25:07;6.70;95.90
18729;DHT22;9493;51.884;5.188;2023-03-14T17:27:35;6.50;95.90
18729;DHT22;9493;51.884;5.188;2023-03-14T17:30:03;6.50;95.90
18729;DHT22;9493;51.884;5.188;2023-03-14T17:32:30;6.40;95.90
18729;DHT22;9493;51.884;5.188;2023-03-14T17:34:57;6.40;96.10
18729;DHT22;9493;51.884;5.188;2023-03-14T17:37:24;6.30;96.10
18729;DHT22;9493;51.884;5.188;2023-03-14T17:39:51;6.20;96.10
18729;DHT22;9493;51.884;5.188;2023-03-14T17:42:18;6.10;96.20
18729;DHT22;9493;51.884;5.188;2023-03-14T17:44:46;6.00;96.40
18729;DHT22;9493;51.884;5.188;2023-03-14T17:47:13;5.90;96.60
18729;DHT22;9493;51.884;5.188;2023-03-14T17:49:40;5.80;96.90
18729;DHT22;9493;51.884;5.188;2023-03-14T17:52:07;5.90;97.20
18729;DHT22;9493;51.884;5.188;2023-03-14T17:54:37;5.70;97.50
18729;DHT22;9493;51.884;5.188;2023-03-14T17:57:04;5.60;97.90
18729;DHT22;9493;51.884;5.188;2023-03-14T17:59:31;5.60;98.20
18729;DHT22;9493;51.884;5.188;2023-03-14T18:01:59;5.60;98.70
18729;DHT22;9493;51.884;5.188;2023-03-14T18:04:26;5.50;99.10
18729;DHT22;9493;51.884;5.188;2023-03-14T18:06:53;5.40;99.30
18729;DHT22;9493;51.884;5.188;2023-03-14T18:09:20;5.30;99.60
18729;DHT22;9493;51.884;5.188;2023-03-14T18:11:47;5.30;99.70
18729;DHT22;9493;51.884;5.188;2023-03-14T18:14:14;5.20;99.80
18729;DHT22;9493;51.884;5.188;2023-03-14T18:16:41;5.30;99.90
18729;DHT22;9493;51.884;5.188;2023-03-14T18:19:15;5.20;99.90
18729;DHT22;9493;51.884;5.188;2023-03-14T18:21:42;5.20;99.90
18729;DHT22;9493;51.884;5.188;2023-03-14T18:24:09;5.10;99.90
18729;DHT22;9493;51.884;5.188;2023-03-14T18:26:37;5.50;99.90
18729;DHT22;9493;51.884;5.188;2023-03-14T18:29:04;5.00;99.90
18729;DHT22;9493;51.884;5.188;2023-03-14T18:31:31;5.00;99.90
18729;DHT22;9493;51.884;5.188;2023-03-14T18:33:59;5.00;99.90
18729;DHT22;9493;51.884;5.188;2023-03-14T18:36:28;5.00;99.90
18729;DHT22;9493;51.884;5.188;2023-03-14T18:38:55;4.90;99.90
18729;DHT22;9493;51.884;5.188;2023-03-14T18:41:23;4.90;99.90
18729;DHT22;9493;51.884;5.188;2023-03-14T18:43:54;4.80;99.90
18729;DHT22;9493;51.884;5.188;2023-03-14T18:46:21;4.80;99.90
18729;DHT22;9493;51.884;5.188;2023-03-14T18:48:48;4.70;99.90
18729;DHT22;9493;51.884;5.188;2023-03-14T18:51:21;4.70;99.90
18729;DHT22;9493;51.884;5.188;2023-03-14T18:53:51;4.70;99.90
18729;DHT22;9493;51.884;5.188;2023-03-14T18:56:19;4.60;99.90
18729;DHT22;9493;51.884;5.188;2023-03-14T18:58:47;4.60;99.90
18729;DHT22;9493;51.884;5.188;2023-03-14T19:01:14;4.60;99.90
18729;DHT22;9493;51.884;5.188;2023-03-14T19:03:43;4.50;99.90
18729;DHT22;9493;51.884;5.188;2023-03-14T19:06:12;4.50;99.90
18729;DHT22;9493;51.884;5.188;2023-03-14T19:08:40;4.50;99.90
18729;DHT22;9493;51.884;5.188;2023-03-14T19:11:11;4.40;99.90
18729;DHT22;9493;51.884;5.188;2023-03-14T19:13:39;4.40;99.90
18729;DHT22;9493;51.884;5.188;2023-03-14T19:16:07;4.50;99.90
18729;DHT22;9493;51.884;5.188;2023-03-14T19:18:36;4.30;99.90
18729;DHT22;9493;51.884;5.188;2023-03-14T19:21:04;4.40;99.90
18729;DHT22;9493;51.884;5.188;2023-03-14T19:23:33;4.30;99.90
18729;DHT22;9493;51.884;5.188;2023-03-14T19:26:00;4.20;99.90
18729;DHT22;9493;51.884;5.188;2023-03-14T19:28:30;4.10;99.90
18729;DHT22;9493;51.884;5.188;2023-03-14T19:30:57;4.10;99.90
18729;DHT22;9493;51.884;5.188;2023-03-14T19:33:24;4.00;99.90
18729;DHT22;9493;51.884;5.188;2023-03-14T19:35:52;4.10;99.90
18729;DHT22;9493;51.884;5.188;2023-03-14T19:38:19;4.20;99.90
18729;DHT22;9493;51.884;5.188;2023-03-14T19:40:46;4.00;99.90
18729;DHT22;9493;51.884;5.188;2023-03-14T19:43:15;4.00;99.90
18729;DHT22;9493;51.884;5.188;2023-03-14T19:45:44;3.90;99.90
18729;DHT22;9493;51.884;5.188;2023-03-14T19:48:11;3.90;99.90
18729;DHT22;9493;51.884;5.188;2023-03-14T19:50:38;3.80;99.90
18729;DHT22;9493;51.884;5.188;2023-03-14T19:53:05;3.80;99.90
18729;DHT22;9493;51.884;5.188;2023-03-14T19:55:33;3.80;99.90
18729;DHT22;9493;51.884;5.188;2023-03-14T19:58:02;3.80;99.90
18729;DHT22;9493;51.884;5.188;2023-03-14T20:00:29;3.70;99.90
18729;DHT22;9493;51.884;5.188;2023-03-14T20:02:58;3.90;99.90
18729;DHT22;9493;51.884;5.188;2023-03-14T20:05:28;3.70;99.90
18729;DHT22;9493;51.884;5.188;2023-03-14T20:07:55;3.70;99.90
18729;DHT22;9493;51.884;5.188;2023-03-14T20:10:21;3.70;99.90
18729;DHT22;9493;51.884;5.188;2023-03-14T20:12:49;3.80;99.90
18729;DHT22;9493;51.884;5.188;2023-03-14T20:15:17;3.80;99.90
18729;DHT22;9493;51.884;5.188;2023-03-14T20:17:46;4.00;99.90
18729;DHT22;9493;51.884;5.188;2023-03-14T20:20:15;3.80;99.90
18729;DHT22;9493;51.884;5.188;2023-03-14T20:22:42;3.90;99.90
18729;DHT22;9493;51.884;5.188;2023-03-14T20:25:11;4.00;99.90
18729;DHT22;9493;51.884;5.188;2023-03-14T20:27:39;4.10;99.90
18729;DHT22;9493;51.884;5.188;2023-03-14T20:30:08;4.40;99.90
18729;DHT22;9493;51.884;5.188;2023-03-14T20:32:37;4.00;99.90
18729;DHT22;9493;51.884;5.188;2023-03-14T20:35:04;4.00;99.90
18729;DHT22;9493;51.884;5.188;2023-03-14T20:37:33;4.10;99.90
18729;DHT22;9493;51.884;5.188;2023-03-14T20:40:00;4.30;99.90
18729;DHT22;9493;51.884;5.188;2023-03-14T20:42:27;4.50;99.90
18729;DHT22;9493;51.884;5.188;2023-03-14T20:44:54;4.70;99.90
18729;DHT22;9493;51.884;5.188;2023-03-14T20:47:21;4.70;99.90
18729;DHT22;9493;51.884;5.188;2023-03-14T20:49:48;4.80;99.90
18729;DHT22;9493;51.884;5.188;2023-03-14T20:52:14;4.80;99.90
18729;DHT22;9493;51.884;5.188;2023-03-14T20:54:43;4.80;99.90
18729;DHT22;9493;51.884;5.188;2023-03-14T20:57:10;4.90;99.90
18729;DHT22;9493;51.884;5.188;2023-03-14T20:59:39;4.90;99.90
18729;DHT22;9493;51.884;5.188;2023-03-14T21:02:08;4.90;99.90
18729;DHT22;9493;51.884;5.188;2023-03-14T21:04:35;5.10;99.90
18729;DHT22;9493;51.884;5.188;2023-03-14T21:07:02;4.90;99.90
18729;DHT22;9493;51.884;5.188;2023-03-14T21:09:29;5.10;99.90
18729;DHT22;9493;51.884;5.188;2023-03-14T21:11:58;4.70;99.90
18729;DHT22;9493;51.884;5.188;2023-03-14T21:14:25;4.80;99.90
18729;DHT22;9493;51.884;5.188;2023-03-14T21:16:52;4.60;99.90
18729;DHT22;9493;51.884;5.188;2023-03-14T21:19:20;4.60;99.90
18729;DHT22;9493;51.884;5.188;2023-03-14T21:21:55;4.50;99.90
18729;DHT22;9493;51.884;5.188;2023-03-14T21:24:22;4.50;99.90
18729;DHT22;9493;51.884;5.188;2023-03-14T21:26:50;4.90;99.90
18729;DHT22;9493;51.884;5.188;2023-03-14T21:29:19;4.20;99.90
18729;DHT22;9493;51.884;5.188;2023-03-14T21:31:47;4.30;99.90
18729;DHT22;9493;51.884;5.188;2023-03-14T21:34:14;4.20;99.90
18729;DHT22;9493;51.884;5.188;2023-03-14T21:36:41;4.20;99.90
18729;DHT22;9493;51.884;5.188;2023-03-14T21:39:08;4.10;99.90
18729;DHT22;9493;51.884;5.188;2023-03-14T21:41:35;4.10;99.90
18729;DHT22;9493;51.884;5.188;2023-03-14T21:44:02;4.20;99.90
18729;DHT22;9493;51.884;5.188;2023-03-14T21:46:30;4.40;99.90
18729;DHT22;9493;51.884;5.188;2023-03-14T21:49:00;4.30;99.90
18729;DHT22;9493;51.884;5.188;2023-03-14T21:51:28;4.50;99.90
18729;DHT22;9493;51.884;5.188;2023-03-14T21:53:55;4.20;99.90
18729;DHT22;9493;51.884;5.188;2023-03-14T21:56:23;4.40;99.90
18729;DHT22;9493;51.884;5.188;2023-03-14T21:58:52;4.50;99.90
18729;DHT22;9493;51.884;5.188;2023-03-14T22:01:21;4.40;99.90
18729;DHT22;9493;51.884;5.188;2023-03-14T22:03:49;4.50;99.90
18729;DHT22;9493;51.884;5.188;2023-03-14T22:06:18;4.60;99.90
18729;DHT22;9493;51.884;5.188;2023-03-14T22:08:45;4.50;99.90
18729;DHT22;9493;51.884;5.188;2023-03-14T22:11:12;4.50;99.90
18729;DHT22;9493;51.884;5.188;2023-03-14T22:13:39;4.50;99.90
18729;DHT22;9493;51.884;5.188;2023-03-14T22:16:07;4.70;99.90
18729;DHT22;9493;51.884;5.188;2023-03-14T22:18:34;4.60;99.90
18729;DHT22;9493;51.884;5.188;2023-03-14T22:21:02;4.60;99.90
18729;DHT22;9493;51.884;5.188;2023-03-14T22:23:29;4.50;99.90
18729;DHT22;9493;51.884;5.188;2023-03-14T22:25:56;4.30;99.90
18729;DHT22;9493;51.884;5.188;2023-03-14T22:28:23;3.90;99.90
18729;DHT22;9493;51.884;5.188;2023-03-14T22:30:50;3.50;99.90
18729;DHT22;9493;51.884;5.188;2023-03-14T22:33:18;3.60;99.90
18729;DHT22;9493;51.884;5.188;2023-03-14T22:35:47;3.40;99.90
18729;DHT22;9493;51.884;5.188;2023-03-14T22:38:15;3.30;99.90
18729;DHT22;9493;51.884;5.188;2023-03-14T22:40:42;3.30;99.90
18729;DHT22;9493;51.884;5.188;2023-03-14T22:43:09;3.40;99.90
18729;DHT22;9493;51.884;5.188;2023-03-14T22:45:36;3.20;99.90
18729;DHT22;9493;51.884;5.188;2023-03-14T22:48:03;3.10;99.90
18729;DHT22;9493;51.884;5.188;2023-03-14T22:50:30;3.00;99.90
18729;DHT22;9493;51.884;5.188;2023-03-14T22:52:57;3.00;99.90
18729;DHT22;9493;51.884;5.188;2023-03-14T22:55:26;3.00;99.90
18729;DHT22;9493;51.884;5.188;2023-03-14T22:57:52;3.20;99.90
18729;DHT22;9493;51.884;5.188;2023-03-14T23:00:21;3.10;99.90
18729;DHT22;9493;51.884;5.188;2023-03-14T23:02:48;3.10;99.90
18729;DHT22;9493;51.884;5.188;2023-03-14T23:05:15;3.20;99.90
18729;DHT22;9493;51.884;5.188;2023-03-14T23:07:42;3.10;99.90
18729;DHT22;9493;51.884;5.188;2023-03-14T23:10:10;3.10;99.90
18729;DHT22;9493;51.884;5.188;2023-03-14T23:12:38;3.10;99.90
18729;DHT22;9493;51.884;5.188;2023-03-14T23:15:06;3.10;99.90
18729;DHT22;9493;51.884;5.188;2023-03-14T23:17:33;3.10;99.90
18729;DHT22;9493;51.884;5.188;2023-03-14T23:20:00;3.30;99.90
18729;DHT22;9493;51.884;5.188;2023-03-14T23:22:31;3.00;99.90
18729;DHT22;9493;51.884;5.188;2023-03-14T23:24:58;3.10;99.90
18729;DHT22;9493;51.884;5.188;2023-03-14T23:27:25;3.00;99.90
18729;DHT22;9493;51.884;5.188;2023-03-14T23:29:54;3.00;99.90
18729;DHT22;9493;51.884;5.188;2023-03-14T23:32:21;3.00;99.90
18729;DHT22;9493;51.884;5.188;2023-03-14T23:34:48;2.90;99.90
18729;DHT22;9493;51.884;5.188;2023-03-14T23:37:16;3.00;99.90
18729;DHT22;9493;51.884;5.188;2023-03-14T23:39:44;3.00;99.90
18729;DHT22;9493;51.884;5.188;2023-03-14T23:42:11;2.90;99.90
18729;DHT22;9493;51.884;5.188;2023-03-14T23:44:39;3.00;99.90
18729;DHT22;9493;51.884;5.188;2023-03-14T23:47:08;3.00;99.90
18729;DHT22;9493;51.884;5.188;2023-03-14T23:49:35;3.10;99.90
18729;DHT22;9493;51.884;5.188;2023-03-14T23:52:02;3.10;99.90
18729;DHT22;9493;51.884;5.188;2023-03-14T23:54:29;3.10;99.90
18729;DHT22;9493;51.884;5.188;2023-03-14T23:56:56;3.00;99.90
18729;DHT22;9493;51.884;5.188;2023-03-14T23:59:22;3.10;99.90
